createdAt,value
2018-09-09T00:05:44.000Z,1012.14
2018-09-09T00:15:43.000Z,1012.276
2018-09-09T00:25:43.000Z,1012.257
2018-09-09T00:35:43.000Z,1012.217
2018-09-09T00:45:43.000Z,1012.201
2018-09-09T00:55:43.000Z,1012.204
2018-09-09T01:05:44.000Z,1012.22
2018-09-09T01:15:44.000Z,1012.218
2018-09-09T01:25:44.000Z,1012.175
2018-09-09T01:35:44.000Z,1012.147
2018-09-09T01:45:44.000Z,1012.142
2018-09-09T01:55:44.000Z,1012.219
2018-09-09T02:05:44.000Z,1012.121
2018-09-09T02:15:44.000Z,1012.248
2018-09-09T02:25:44.000Z,1012.107
2018-09-09T02:35:44.000Z,1012.185
2018-09-09T02:45:44.000Z,1012.181
2018-09-09T02:55:44.000Z,1012.077
2018-09-09T03:05:44.000Z,1012.172
2018-09-09T03:15:44.000Z,1012.185
2018-09-09T03:25:44.000Z,1012.219
2018-09-09T03:35:44.000Z,1011.965
2018-09-09T03:45:44.000Z,1011.928
2018-09-09T03:55:44.000Z,1011.988
2018-09-09T04:05:44.000Z,1012.104
2018-09-09T04:15:44.000Z,1012.214
2018-09-09T04:25:44.000Z,1012.234
2018-09-09T04:35:44.000Z,1012.156
2018-09-09T04:45:44.000Z,1012.146
2018-09-09T04:55:44.000Z,1012.185
2018-09-09T05:05:44.000Z,1012.274
2018-09-09T05:15:44.000Z,1012.364
2018-09-09T05:25:44.000Z,1012.475
2018-09-09T05:35:44.000Z,1012.594
2018-09-09T05:45:44.000Z,1012.557
2018-09-09T05:55:44.000Z,1012.64
2018-09-09T06:05:44.000Z,1012.659
2018-09-09T06:15:44.000Z,1012.64
2018-09-09T06:25:44.000Z,1012.728
2018-09-09T06:35:44.000Z,1012.844
2018-09-09T06:45:44.000Z,1012.908
2018-09-09T06:55:44.000Z,1012.966
2018-09-09T07:05:44.000Z,1012.926
2018-09-09T07:15:44.000Z,1012.979
2018-09-09T07:25:44.000Z,1013.074
2018-09-09T07:35:44.000Z,1013.06
2018-09-09T07:45:44.000Z,1013.135
2018-09-09T07:55:44.000Z,1013.235
2018-09-09T08:05:44.000Z,1013.296
2018-09-09T08:15:44.000Z,1013.288
2018-09-09T08:35:44.000Z,1013.111
2018-09-09T08:45:44.000Z,1013.126
2018-09-09T08:55:44.000Z,1013.204
2018-09-09T09:05:44.000Z,1013.165
2018-09-09T09:15:44.000Z,1013.117
2018-09-09T09:25:45.000Z,1013.061
2018-09-09T09:35:45.000Z,1013.083
2018-09-09T09:45:45.000Z,1013.249
2018-09-09T09:55:45.000Z,1013.27
2018-09-09T10:05:45.000Z,1013.299
2018-09-09T10:15:45.000Z,1013.212
2018-09-09T10:25:45.000Z,1013.213
2018-09-09T10:35:45.000Z,1013.172
2018-09-09T10:45:45.000Z,1013.173
2018-09-09T10:55:45.000Z,1013.237
2018-09-09T11:05:45.000Z,1013.308
2018-09-09T11:15:45.000Z,1013.384
2018-09-09T11:25:45.000Z,1013.404
2018-09-09T11:35:45.000Z,1013.32
2018-09-09T11:45:45.000Z,1013.267
2018-09-09T12:05:45.000Z,1013.005
2018-09-09T12:15:45.000Z,1013.078
2018-09-09T12:25:45.000Z,1013.022
2018-09-09T12:35:45.000Z,1012.916
2018-09-09T12:45:45.000Z,1012.782
2018-09-09T12:55:45.000Z,1012.737
2018-09-09T13:05:45.000Z,1012.746
2018-09-09T13:15:45.000Z,1012.748
2018-09-09T13:25:45.000Z,1012.67
2018-09-09T13:35:45.000Z,1012.73
2018-09-09T13:45:45.000Z,1012.752
2018-09-09T13:55:45.000Z,1012.686
2018-09-09T14:05:45.000Z,1012.8
2018-09-09T14:15:45.000Z,1012.722
2018-09-09T14:25:45.000Z,1012.721
2018-09-09T14:35:45.000Z,1012.65
2018-09-09T14:45:45.000Z,1012.661
2018-09-09T14:55:45.000Z,1012.649
2018-09-09T15:05:45.000Z,1012.621
2018-09-09T15:15:45.000Z,1012.614
2018-09-09T15:25:45.000Z,1012.62
2018-09-09T15:35:45.000Z,1012.693
2018-09-09T15:45:47.000Z,1012.621
2018-09-09T15:55:45.000Z,1012.512
2018-09-09T16:05:45.000Z,1012.56
2018-09-09T16:15:45.000Z,1012.587
2018-09-09T16:25:45.000Z,1012.557
2018-09-09T16:35:45.000Z,1012.559
2018-09-09T16:45:45.000Z,1012.543
2018-09-09T16:55:45.000Z,1012.549
2018-09-09T17:05:45.000Z,1012.559
2018-09-09T17:15:45.000Z,1012.571
2018-09-09T17:25:45.000Z,1012.573
2018-09-09T17:35:45.000Z,1012.566
2018-09-09T17:45:46.000Z,1012.556
2018-09-09T17:55:46.000Z,1012.599
2018-09-09T18:05:46.000Z,1012.635
2018-09-09T18:15:46.000Z,1012.672
2018-09-09T18:25:46.000Z,1012.793
2018-09-09T18:35:46.000Z,1012.785
2018-09-09T18:45:46.000Z,1012.776
2018-09-09T18:55:46.000Z,1012.699
2018-09-09T19:05:46.000Z,1012.762
2018-09-09T19:15:46.000Z,1012.823
2018-09-09T19:25:46.000Z,1012.821
2018-09-09T19:35:46.000Z,1012.822
2018-09-09T19:45:46.000Z,1012.831
2018-09-09T19:55:46.000Z,1012.888
2018-09-09T20:05:46.000Z,1012.874
2018-09-09T20:15:46.000Z,1012.803
2018-09-09T20:25:46.000Z,1012.804
2018-09-09T20:35:46.000Z,1012.884
2018-09-09T20:45:46.000Z,1012.807
2018-09-09T20:55:46.000Z,1012.787
2018-09-09T21:05:46.000Z,1012.704
2018-09-09T21:15:46.000Z,1012.706
2018-09-09T21:25:46.000Z,1012.684
2018-09-09T21:35:46.000Z,1012.588
2018-09-09T21:45:46.000Z,1012.552
2018-09-09T21:55:46.000Z,1012.611
2018-09-09T22:05:46.000Z,1012.526
2018-09-09T22:15:46.000Z,1012.385
2018-09-09T22:25:46.000Z,1012.315
2018-09-09T22:35:46.000Z,1012.272
2018-09-09T22:45:46.000Z,1012.336
2018-09-09T22:55:46.000Z,1012.328
2018-09-09T23:05:46.000Z,1012.36
2018-09-09T23:15:46.000Z,1012.332
2018-09-09T23:25:46.000Z,1012.31
2018-09-09T23:35:46.000Z,1012.134
2018-09-09T23:45:46.000Z,1012.158
2018-09-09T23:55:46.000Z,1012.061
